createdAt,value
2018-11-26T00:01:15.344Z,12.87
2018-11-26T00:03:43.676Z,12.93
2018-11-26T00:06:12.256Z,13.37
2018-11-26T00:08:40.042Z,13.33
2018-11-26T00:11:16.043Z,13.60
2018-11-26T00:13:45.829Z,12.47
2018-11-26T00:16:15.087Z,13.97
2018-11-26T00:18:42.842Z,13.07
2018-11-26T00:21:12.033Z,12.53
2018-11-26T00:23:40.135Z,45.13
2018-11-26T00:26:08.061Z,19.07
2018-11-26T00:28:36.780Z,19.57
2018-11-26T00:31:05.108Z,30.07
2018-11-26T00:33:32.865Z,21.23
2018-11-26T00:36:01.193Z,17.13
2018-11-26T00:38:29.842Z,21.30
2018-11-26T00:40:58.860Z,18.30
2018-11-26T00:43:26.611Z,17.43
2018-11-26T00:45:54.932Z,18.23
2018-11-26T00:48:23.827Z,18.93
2018-11-26T00:50:52.529Z,17.80
2018-11-26T00:53:21.057Z,15.33
2018-11-26T00:55:48.804Z,16.80
2018-11-26T00:58:17.166Z,17.33
2018-11-26T01:00:46.091Z,16.93
2018-11-26T01:03:14.430Z,16.77
2018-11-26T01:05:42.170Z,15.87
2018-11-26T01:08:10.497Z,17.60
2018-11-26T01:10:39.413Z,15.63
2018-11-26T01:13:07.715Z,12.60
2018-11-26T01:15:36.029Z,10.77
2018-11-26T01:18:04.350Z,11.33
2018-11-26T01:20:32.094Z,11.67
2018-11-26T01:23:00.999Z,11.93
2018-11-26T01:25:28.738Z,11.10
2018-11-26T01:27:57.629Z,12.77
2018-11-26T01:30:25.378Z,10.03
2018-11-26T01:32:53.676Z,9.87
2018-11-26T01:35:22.576Z,10.33
2018-11-26T01:37:50.902Z,12.27
2018-11-26T01:40:18.642Z,9.63
2018-11-26T01:42:47.550Z,10.60
2018-11-26T01:45:15.531Z,10.50
2018-11-26T01:47:44.466Z,9.90
2018-11-26T01:50:12.208Z,10.50
2018-11-26T01:52:40.513Z,9.17
2018-11-26T01:55:09.406Z,11.17
2018-11-26T01:57:37.719Z,9.93
2018-11-26T02:00:05.451Z,9.63
2018-11-26T02:02:34.369Z,9.67
2018-11-26T02:05:02.101Z,8.63
2018-11-26T02:07:30.989Z,9.10
2018-11-26T02:09:58.720Z,9.97
2018-11-26T02:12:27.353Z,9.37
2018-11-26T02:14:55.345Z,10.37
2018-11-26T02:17:24.237Z,8.60
2018-11-26T02:19:51.979Z,8.90
2018-11-26T02:22:20.876Z,9.23
2018-11-26T02:24:48.614Z,8.80
2018-11-26T02:27:17.511Z,13.03
2018-11-26T02:29:45.252Z,9.57
2018-11-26T02:32:14.132Z,9.13
2018-11-26T02:34:42.446Z,9.07
2018-11-26T02:37:10.765Z,9.67
2018-11-26T02:39:39.089Z,10.50
2018-11-26T02:42:06.835Z,11.37
2018-11-26T02:44:35.726Z,10.27
2018-11-26T02:47:03.459Z,9.67
2018-11-26T02:49:32.351Z,13.63
2018-11-26T02:52:00.667Z,13.07
2018-11-26T02:54:28.998Z,16.57
2018-11-26T02:56:57.589Z,12.40
2018-11-26T02:59:25.901Z,12.73
2018-11-26T03:01:54.224Z,13.77
2018-11-26T03:04:22.569Z,15.10
2018-11-26T03:06:50.306Z,18.47
2018-11-26T03:09:19.213Z,11.30
2018-11-26T03:11:47.525Z,11.17
2018-11-26T03:14:15.262Z,10.80
2018-11-26T03:16:44.171Z,11.90
2018-11-26T03:19:12.482Z,11.47
2018-11-26T03:21:40.809Z,14.53
2018-11-26T03:24:09.138Z,12.83
2018-11-26T03:26:36.892Z,11.80
2018-11-26T03:29:06.121Z,11.87
2018-11-26T03:31:33.866Z,14.23
2018-11-26T03:34:02.987Z,14.23
2018-11-26T03:36:31.313Z,18.53
2018-11-26T03:38:59.627Z,14.43
2018-11-26T03:41:27.370Z,25.17
2018-11-26T03:43:55.683Z,38.53
2018-11-26T03:46:24.587Z,51.33
2018-11-26T03:48:52.330Z,77.10
2018-11-26T03:51:20.655Z,56.50
2018-11-26T03:53:49.149Z,50.10
2018-11-26T03:56:17.884Z,39.57
2018-11-26T03:58:46.200Z,33.87
2018-11-26T04:01:14.529Z,25.50
2018-11-26T04:03:42.849Z,20.53
2018-11-26T04:06:10.661Z,26.57
2018-11-26T04:08:38.938Z,161.77
2018-11-26T04:11:07.840Z,81.53
2018-11-26T04:13:35.590Z,46.47
2018-11-26T04:16:04.486Z,50.23
2018-11-26T04:18:32.827Z,78.30
2018-11-26T04:21:00.621Z,62.73
2018-11-26T04:23:29.499Z,132.77
2018-11-26T04:25:57.832Z,134.27
2018-11-26T04:28:26.153Z,54.40
2018-11-26T04:30:53.891Z,27.43
2018-11-26T04:33:22.801Z,49.53
2018-11-26T04:35:50.546Z,41.83
2018-11-26T04:38:18.882Z,46.77
2018-11-26T04:40:47.209Z,43.47
2018-11-26T04:43:16.113Z,37.03
2018-11-26T04:45:44.442Z,29.17
2018-11-26T04:48:12.191Z,59.00
2018-11-26T04:50:41.107Z,213.67
2018-11-26T04:53:09.765Z,164.83
2018-11-26T04:55:38.089Z,93.57
2018-11-26T04:58:06.411Z,50.10
2018-11-26T05:00:34.745Z,206.20
2018-11-26T05:03:03.082Z,309.77
2018-11-26T05:05:31.416Z,98.47
2018-11-26T05:08:00.365Z,210.80
2018-11-26T05:10:28.117Z,200.53
2018-11-26T05:12:56.446Z,130.87
2018-11-26T05:15:25.672Z,216.83
2018-11-26T05:17:54.002Z,156.40
2018-11-26T05:20:21.753Z,108.60
2018-11-26T05:22:50.655Z,58.10
2018-11-26T05:25:18.407Z,52.20
2018-11-26T05:27:46.730Z,55.77
2018-11-26T05:30:15.213Z,39.67
2018-11-26T05:32:43.961Z,42.87
2018-11-26T05:35:12.290Z,158.93
2018-11-26T05:37:40.052Z,16.80
2018-11-26T05:40:09.268Z,21.80
2018-11-26T05:42:37.009Z,19.43
2018-11-26T05:45:05.336Z,21.40
2018-11-26T05:47:34.238Z,21.23
2018-11-26T05:50:01.983Z,32.87
2018-11-26T05:52:30.306Z,27.63
2018-11-26T05:54:58.621Z,20.60
2018-11-26T05:57:27.531Z,22.43
2018-11-26T05:59:55.282Z,27.90
2018-11-26T06:02:24.170Z,23.30
2018-11-26T06:04:52.498Z,19.40
2018-11-26T06:07:21.163Z,16.33
2018-11-26T06:09:49.505Z,69.63
2018-11-26T06:12:17.828Z,31.27
2018-11-26T06:14:45.571Z,22.27
2018-11-26T06:17:14.197Z,16.10
2018-11-26T06:19:42.561Z,17.07
2018-11-26T06:22:10.846Z,19.87
2018-11-26T06:24:39.749Z,33.80
2018-11-26T06:27:07.498Z,28.93
2018-11-26T06:29:36.411Z,34.77
2018-11-26T06:32:04.744Z,30.50
2018-11-26T06:34:33.073Z,35.97
2018-11-26T06:37:01.404Z,39.17
2018-11-26T06:39:29.153Z,49.50
2018-11-26T06:41:58.075Z,67.27
2018-11-26T06:44:26.409Z,34.37
2018-11-26T06:46:54.151Z,34.83
2018-11-26T06:49:23.050Z,38.03
2018-11-26T06:51:50.874Z,90.57
2018-11-26T06:54:19.152Z,61.00
2018-11-26T06:56:47.471Z,125.07
2018-11-26T06:59:16.372Z,42.17
2018-11-26T07:01:44.690Z,63.97
2018-11-26T07:04:12.549Z,128.20
2018-11-26T07:06:41.348Z,81.23
2018-11-26T07:09:09.103Z,55.30
2018-11-26T07:11:38.033Z,38.03
2018-11-26T07:14:06.377Z,34.57
2018-11-26T07:16:34.682Z,33.40
2018-11-26T07:19:02.439Z,34.57
2018-11-26T07:21:30.816Z,26.97
2018-11-26T07:23:59.663Z,26.97
2018-11-26T07:26:27.990Z,55.67
2018-11-26T07:28:56.314Z,106.20
2018-11-26T07:31:24.639Z,38.33
2018-11-26T07:33:52.380Z,31.63
2018-11-26T07:36:21.288Z,29.03
2018-11-26T07:38:49.612Z,49.37
2018-11-26T07:41:17.355Z,51.30
2018-11-26T07:43:46.270Z,62.70
2018-11-26T07:46:14.590Z,70.83
2018-11-26T07:48:42.354Z,74.03
2018-11-26T07:51:11.274Z,212.83
2018-11-26T07:53:39.025Z,151.93
2018-11-26T07:56:07.935Z,91.23
2018-11-26T07:58:36.258Z,97.63
2018-11-26T08:01:04.580Z,86.73
2018-11-26T08:03:32.957Z,86.97
2018-11-26T08:06:02.366Z,85.67
2018-11-26T08:08:29.597Z,82.03
2018-11-26T08:10:57.357Z,81.47
2018-11-26T08:13:26.319Z,64.13
2018-11-26T08:15:54.655Z,64.47
2018-11-26T08:18:22.980Z,83.13
2018-11-26T08:20:51.317Z,120.80
2018-11-26T08:23:19.068Z,132.83
2018-11-26T08:25:47.417Z,146.40
2018-11-26T08:28:16.380Z,219.50
2018-11-26T08:30:44.729Z,169.03
2018-11-26T08:33:13.053Z,113.07
2018-11-26T08:35:41.403Z,66.63
2018-11-26T08:38:10.840Z,65.00
2018-11-26T08:40:37.792Z,46.90
2018-11-26T08:43:06.735Z,41.00
2018-11-26T08:45:35.023Z,32.00
2018-11-26T08:48:03.360Z,27.37
2018-11-26T08:50:31.802Z,24.50
2018-11-26T08:53:00.138Z,25.43
2018-11-26T08:55:28.451Z,24.40
2018-11-26T08:57:57.086Z,28.63
2018-11-26T09:00:25.403Z,29.00
2018-11-26T09:02:53.730Z,29.40
2018-11-26T09:05:24.122Z,28.87
2018-11-26T09:07:50.908Z,29.80
2018-11-26T09:10:19.003Z,24.67
2018-11-26T09:12:47.330Z,29.33
2018-11-26T09:15:15.695Z,31.53
2018-11-26T09:17:43.459Z,30.00
2018-11-26T09:20:11.780Z,31.43
2018-11-26T09:22:40.690Z,38.43
2018-11-26T09:25:09.017Z,29.87
2018-11-26T09:27:37.354Z,22.27
2018-11-26T09:30:06.097Z,22.97
2018-11-26T09:32:34.696Z,47.00
2018-11-26T09:35:02.443Z,70.13
2018-11-26T09:37:31.348Z,119.60
2018-11-26T09:39:59.097Z,55.73
2018-11-26T09:42:28.005Z,41.87
2018-11-26T09:44:55.751Z,35.57
2018-11-26T09:47:24.655Z,41.33
2018-11-26T09:49:52.410Z,31.73
2018-11-26T09:52:21.646Z,34.10
2018-11-26T09:54:50.001Z,30.20
2018-11-26T09:57:18.296Z,31.07
2018-11-26T09:59:46.630Z,33.80
2018-11-26T10:02:14.961Z,31.80
2018-11-26T10:04:42.725Z,31.67
2018-11-26T10:07:11.056Z,31.87
2018-11-26T10:09:39.960Z,31.03
2018-11-26T10:12:08.291Z,23.53
2018-11-26T10:14:36.607Z,23.03
2018-11-26T10:17:04.374Z,18.80
2018-11-26T10:19:32.846Z,22.33
2018-11-26T10:22:01.172Z,18.87
2018-11-26T10:24:30.092Z,18.90
2018-11-26T10:26:58.407Z,16.93
2018-11-26T10:29:26.170Z,20.77
2018-11-26T10:31:55.072Z,13.57
2018-11-26T10:34:23.618Z,14.67
2018-11-26T10:36:51.393Z,35.67
2018-11-26T10:39:20.304Z,14.37
2018-11-26T10:41:48.038Z,48.73
2018-11-26T10:44:16.950Z,16.30
2018-11-26T10:46:45.262Z,12.50
2018-11-26T10:49:13.587Z,14.37
2018-11-26T10:51:41.898Z,11.70
2018-11-26T10:54:09.651Z,13.63
2018-11-26T10:56:37.966Z,12.13
2018-11-26T10:59:06.289Z,18.63
2018-11-26T11:01:35.190Z,12.67
2018-11-26T11:04:02.931Z,14.67
2018-11-26T11:06:31.832Z,14.63
2018-11-26T11:08:59.567Z,10.30
2018-11-26T11:11:28.487Z,10.23
2018-11-26T11:13:56.224Z,6.33
2018-11-26T11:16:25.107Z,9.50
2018-11-26T11:18:53.443Z,7.40
2018-11-26T11:21:21.757Z,9.17
2018-11-26T11:23:49.499Z,10.67
2018-11-26T11:26:17.832Z,7.20
2018-11-26T11:28:46.708Z,8.07
2018-11-26T11:31:15.029Z,6.10
2018-11-26T11:33:43.346Z,6.20
2018-11-26T11:36:11.671Z,8.80
2018-11-26T11:38:39.976Z,8.67
2018-11-26T11:41:08.305Z,6.17
2018-11-26T11:43:36.620Z,7.73
2018-11-26T11:46:04.947Z,10.23
2018-11-26T11:48:33.266Z,7.13
2018-11-26T11:51:01.587Z,11.77
2018-11-26T11:53:29.963Z,12.50
2018-11-26T11:55:58.292Z,11.20
2018-11-26T11:58:26.620Z,11.17
2018-11-26T12:00:54.945Z,16.40
2018-11-26T12:03:23.279Z,11.43
2018-11-26T12:05:51.592Z,8.53
2018-11-26T12:08:19.913Z,13.67
2018-11-26T12:10:48.230Z,15.77
2018-11-26T12:13:16.566Z,27.50
2018-11-26T12:15:44.913Z,10.70
2018-11-26T12:18:13.542Z,36.60
2018-11-26T12:20:41.878Z,21.33
2018-11-26T12:23:10.213Z,57.93
2018-11-26T12:25:38.536Z,25.70
2018-11-26T12:28:06.873Z,16.20
2018-11-26T12:30:35.185Z,12.40
2018-11-26T12:33:03.507Z,7.57
2018-11-26T12:35:31.825Z,9.33
2018-11-26T12:38:00.148Z,10.97
2018-11-26T12:40:28.471Z,9.50
2018-11-26T12:42:56.781Z,7.67
2018-11-26T12:45:25.101Z,11.77
2018-11-26T12:47:53.420Z,6.17
2018-11-26T12:50:21.762Z,11.93
2018-11-26T12:52:50.902Z,9.73
2018-11-26T12:55:19.231Z,10.53
2018-11-26T12:57:47.547Z,9.67
2018-11-26T13:00:15.855Z,9.77
2018-11-26T13:02:44.186Z,11.43
2018-11-26T13:05:12.495Z,13.80
2018-11-26T13:07:40.815Z,17.70
2018-11-26T13:10:09.151Z,13.57
2018-11-26T13:12:37.463Z,23.27
2018-11-26T13:15:05.789Z,15.90
2018-11-26T13:17:34.114Z,11.43
2018-11-26T13:20:02.455Z,222.07
2018-11-26T13:22:30.801Z,54.53
2018-11-26T13:24:59.129Z,33.63
2018-11-26T13:27:27.444Z,7.63
2018-11-26T13:29:55.772Z,6.90
2018-11-26T13:32:24.093Z,12.50
2018-11-26T13:34:52.420Z,10.37
2018-11-26T13:37:20.754Z,13.70
2018-11-26T13:39:49.087Z,13.97
2018-11-26T13:42:17.418Z,16.07
2018-11-26T13:44:45.750Z,16.07
2018-11-26T13:47:14.079Z,23.00
2018-11-26T13:49:42.404Z,33.10
2018-11-26T13:52:10.738Z,44.47
2018-11-26T13:54:39.063Z,41.43
2018-11-26T13:57:07.385Z,47.97
2018-11-26T13:59:35.716Z,40.20
2018-11-26T14:02:04.305Z,38.60
2018-11-26T14:04:32.635Z,31.27
2018-11-26T14:07:00.965Z,42.00
2018-11-26T14:09:29.297Z,30.07
2018-11-26T14:11:57.624Z,26.73
2018-11-26T14:14:25.951Z,30.50
2018-11-26T14:16:54.277Z,37.87
2018-11-26T14:19:22.613Z,35.27
2018-11-26T14:21:50.938Z,54.37
2018-11-26T14:24:19.279Z,42.27
2018-11-26T14:26:48.504Z,46.97
2018-11-26T14:29:16.839Z,60.00
2018-11-26T14:31:45.175Z,110.63
2018-11-26T14:34:13.521Z,96.93
2018-11-26T14:36:41.847Z,62.90
2018-11-26T14:39:10.190Z,145.10
2018-11-26T14:41:38.520Z,55.60
2018-11-26T14:44:08.138Z,49.43
2018-11-26T14:46:36.469Z,73.13
2018-11-26T14:49:05.071Z,67.43
2018-11-26T14:51:33.397Z,74.03
2018-11-26T14:54:01.723Z,60.60
2018-11-26T14:56:30.050Z,51.47
2018-11-26T14:58:58.386Z,52.00
2018-11-26T15:01:26.719Z,118.33
2018-11-26T15:03:55.061Z,73.53
2018-11-26T15:06:23.393Z,36.90
2018-11-26T15:08:51.722Z,36.10
2018-11-26T15:11:20.049Z,28.43
2018-11-26T15:13:48.379Z,23.47
2018-11-26T15:16:16.719Z,33.67
2018-11-26T15:18:45.042Z,29.47
2018-11-26T15:21:13.377Z,27.07
2018-11-26T15:23:41.707Z,31.97
2018-11-26T15:26:10.030Z,44.33
2018-11-26T15:28:38.357Z,25.60
2018-11-26T15:31:06.693Z,31.10
2018-11-26T15:33:35.020Z,58.27
2018-11-26T15:36:03.347Z,93.23
2018-11-26T15:38:31.677Z,79.43
2018-11-26T15:41:00.024Z,57.47
2018-11-26T15:43:28.360Z,52.50
2018-11-26T15:45:57.000Z,45.13
2018-11-26T15:48:25.317Z,41.93
2018-11-26T15:50:53.974Z,41.43
2018-11-26T15:53:22.312Z,91.67
2018-11-26T15:55:50.664Z,148.10
2018-11-26T15:58:23.589Z,109.13
2018-11-26T16:00:47.334Z,71.13
2018-11-26T16:03:15.667Z,78.57
2018-11-26T16:05:44.002Z,63.73
2018-11-26T16:08:12.332Z,83.33
2018-11-26T16:10:40.661Z,75.13
2018-11-26T16:13:08.983Z,73.53
2018-11-26T16:15:37.312Z,97.17
2018-11-26T16:18:05.659Z,86.37
2018-11-26T16:20:33.997Z,149.00
2018-11-26T16:23:02.335Z,147.57
2018-11-26T16:25:30.675Z,142.73
2018-11-26T16:27:59.031Z,136.37
2018-11-26T16:30:27.374Z,122.90
2018-11-26T16:32:55.711Z,94.70
2018-11-26T16:35:24.046Z,70.93
2018-11-26T16:37:52.376Z,43.07
2018-11-26T16:40:20.814Z,48.57
2018-11-26T16:42:49.101Z,57.20
2018-11-26T16:45:17.435Z,85.70
2018-11-26T16:47:45.753Z,67.90
2018-11-26T16:50:14.099Z,74.57
2018-11-26T16:52:43.057Z,44.93
2018-11-26T16:55:11.399Z,33.60
2018-11-26T16:57:40.862Z,33.13
2018-11-26T17:00:08.318Z,34.20
2018-11-26T17:02:43.667Z,37.80
2018-11-26T17:05:12.033Z,48.20
2018-11-26T17:07:40.702Z,49.53
2018-11-26T17:10:08.807Z,48.97
2018-11-26T17:12:37.464Z,57.90
2018-11-26T17:15:07.808Z,88.23
2018-11-26T17:17:36.177Z,57.67
2018-11-26T17:20:04.498Z,60.00
2018-11-26T17:22:32.874Z,81.57
2018-11-26T17:25:01.287Z,67.90
2018-11-26T17:27:29.667Z,69.60
2018-11-26T17:29:58.135Z,45.70
2018-11-26T17:32:26.844Z,47.27
2018-11-26T17:34:55.447Z,55.43
2018-11-26T17:37:24.202Z,66.13
2018-11-26T17:39:52.860Z,85.80
2018-11-26T17:42:21.551Z,64.93
2018-11-26T17:44:49.878Z,48.87
2018-11-26T17:47:18.200Z,58.27
2018-11-26T17:49:46.551Z,85.93
2018-11-26T17:52:14.931Z,114.93
2018-11-26T17:54:43.253Z,118.90
2018-11-26T17:57:11.588Z,122.10
2018-11-26T17:59:39.992Z,130.23
2018-11-26T18:02:08.322Z,108.63
2018-11-26T18:04:36.680Z,113.87
2018-11-26T18:07:05.017Z,103.87
2018-11-26T18:09:33.353Z,95.50
2018-11-26T18:12:01.704Z,107.13
2018-11-26T18:14:30.101Z,100.43
2018-11-26T18:16:58.495Z,119.57
2018-11-26T18:19:26.978Z,89.30
2018-11-26T18:21:55.333Z,89.20
2018-11-26T18:24:24.014Z,84.57
2018-11-26T18:26:52.351Z,80.00
2018-11-26T18:29:20.680Z,92.07
2018-11-26T18:31:49.116Z,101.63
2018-11-26T18:34:17.494Z,87.57
2018-11-26T18:36:45.844Z,91.93
2018-11-26T18:39:14.182Z,95.80
2018-11-26T18:41:42.519Z,91.00
2018-11-26T18:44:10.852Z,95.70
2018-11-26T18:46:39.194Z,100.27
2018-11-26T18:49:08.642Z,110.50
2018-11-26T18:51:36.975Z,120.27
2018-11-26T18:54:05.394Z,133.63
2018-11-26T18:56:33.752Z,106.60
2018-11-26T18:59:02.147Z,106.37
2018-11-26T19:01:30.541Z,91.03
2018-11-26T19:03:59.295Z,108.03
2018-11-26T19:06:27.653Z,106.77
2018-11-26T19:08:56.331Z,120.63
2018-11-26T19:11:24.671Z,179.67
2018-11-26T19:13:53.020Z,115.30
2018-11-26T19:16:21.731Z,109.97
2018-11-26T19:18:50.206Z,113.47
2018-11-26T19:21:18.576Z,123.47
2018-11-26T19:23:46.924Z,125.47
2018-11-26T19:26:15.265Z,121.53
2018-11-26T19:28:43.679Z,120.97
2018-11-26T19:31:12.055Z,106.10
2018-11-26T19:33:40.393Z,106.80
2018-11-26T19:36:10.109Z,115.83
2018-11-26T19:38:38.587Z,106.13
2018-11-26T19:41:06.800Z,108.00
2018-11-26T19:43:35.151Z,90.90
2018-11-26T19:46:03.494Z,95.17
2018-11-26T19:48:31.931Z,91.70
2018-11-26T19:51:00.363Z,90.33
2018-11-26T19:53:28.706Z,82.77
2018-11-26T19:55:57.012Z,68.07
2018-11-26T19:58:25.374Z,68.90
2018-11-26T20:00:53.744Z,59.27
2018-11-26T20:03:22.069Z,61.83
2018-11-26T20:05:50.409Z,62.37
2018-11-26T20:08:18.767Z,64.60
2018-11-26T20:10:47.072Z,68.40
2018-11-26T20:13:15.520Z,63.30
2018-11-26T20:15:43.754Z,60.23
2018-11-26T20:18:12.089Z,68.83
2018-11-26T20:20:40.473Z,73.10
2018-11-26T20:23:08.800Z,85.90
2018-11-26T20:25:37.152Z,91.00
2018-11-26T20:28:05.481Z,99.63
2018-11-26T20:30:33.823Z,100.80
2018-11-26T20:33:02.374Z,104.20
2018-11-26T20:35:30.747Z,103.90
2018-11-26T20:37:59.080Z,115.77
2018-11-26T20:40:28.207Z,144.60
2018-11-26T20:42:56.822Z,123.67
2018-11-26T20:45:25.185Z,109.67
2018-11-26T20:47:53.580Z,114.93
2018-11-26T20:50:21.910Z,104.10
2018-11-26T20:52:50.244Z,123.50
2018-11-26T20:55:18.808Z,131.30
2018-11-26T20:57:46.957Z,127.97
2018-11-26T21:00:15.267Z,123.50
2018-11-26T21:02:43.645Z,104.40
2018-11-26T21:05:11.977Z,108.77
2018-11-26T21:07:40.312Z,103.40
2018-11-26T21:10:08.660Z,102.37
2018-11-26T21:12:37.105Z,102.17
2018-11-26T21:15:05.433Z,103.63
2018-11-26T21:17:33.782Z,96.27
2018-11-26T21:20:02.114Z,96.77
2018-11-26T21:22:30.440Z,95.30
2018-11-26T21:24:58.768Z,94.17
2018-11-26T21:27:27.093Z,86.47
2018-11-26T21:29:55.417Z,76.60
2018-11-26T21:32:23.754Z,87.67
2018-11-26T21:34:52.085Z,89.93
2018-11-26T21:37:20.441Z,94.40
2018-11-26T21:39:48.789Z,94.97
2018-11-26T21:42:17.129Z,98.07
2018-11-26T21:44:45.485Z,99.90
2018-11-26T21:47:13.805Z,102.77
2018-11-26T21:49:42.144Z,104.40
2018-11-26T21:52:10.465Z,117.50
2018-11-26T21:54:38.843Z,113.93
2018-11-26T21:57:07.180Z,111.33
2018-11-26T21:59:35.532Z,102.50
2018-11-26T22:02:03.959Z,120.13
2018-11-26T22:04:32.303Z,127.40
2018-11-26T22:07:00.634Z,141.00
2018-11-26T22:09:29.019Z,119.13
2018-11-26T22:39:24.928Z,79.00
2018-11-26T22:41:53.254Z,66.50
2018-11-26T22:44:21.992Z,65.47
2018-11-26T22:46:50.316Z,58.53
2018-11-26T22:49:18.652Z,76.70
2018-11-26T22:51:51.273Z,75.23
2018-11-26T22:54:15.345Z,79.47
2018-11-26T22:56:43.668Z,81.53
2018-11-26T22:59:11.998Z,82.03
2018-11-26T23:01:40.328Z,81.20
2018-11-26T23:04:08.654Z,75.67
2018-11-26T23:06:36.984Z,77.17
2018-11-26T23:09:05.314Z,75.63
2018-11-26T23:11:33.651Z,63.50
2018-11-26T23:14:01.979Z,62.10
2018-11-26T23:16:30.304Z,65.33
2018-11-26T23:18:58.629Z,58.47
2018-11-26T23:21:26.953Z,55.93
2018-11-26T23:23:55.280Z,60.73
2018-11-26T23:26:23.608Z,56.87
2018-11-26T23:28:51.936Z,58.53
2018-11-26T23:31:20.258Z,61.20
2018-11-26T23:33:48.589Z,61.47
2018-11-26T23:36:16.914Z,65.97
2018-11-26T23:38:45.245Z,68.70
2018-11-26T23:41:13.592Z,55.60
2018-11-26T23:43:41.936Z,49.50
2018-11-26T23:46:10.251Z,50.33
2018-11-26T23:48:38.584Z,41.77
2018-11-26T23:51:06.916Z,37.37
2018-11-26T23:53:35.248Z,46.37
2018-11-26T23:56:03.579Z,42.43
2018-11-26T23:58:31.902Z,37.47
